Time;durP1;ratioP1;P1;durP2;ratioP2;P2;SDS_P1;SDS_P2;PMS_P1;PMS_P2;Temp;Humidity;BMP_temperature;BMP_pressure;BME280_temperature;BME280_humidity;BME280_pressure;Samples;Min_cycle;Max_cycle;Signal;HPM_P1;HPM_P2
2021/07/29 00:00:41;;;;;;;15.88;14.27;;;23.20;82.20;;;;;;5094101;28;20189;-82
2021/07/29 00:03:08;;;;;;;16.58;14.88;;;23.30;82.30;;;;;;5077614;28;20318;-81
2021/07/29 00:05:37;;;;;;;16.45;14.75;;;23.20;82.20;;;;;;5077501;28;20225;-83
2021/07/29 00:08:04;;;;;;;16.52;14.82;;;23.20;82.10;;;;;;5076837;28;20201;-81
2021/07/29 00:10:31;;;;;;;15.73;14.05;;;23.30;82.90;;;;;;5078208;28;20169;-82
2021/07/29 00:12:57;;;;;;;16.08;14.38;;;23.30;82.10;;;;;;5111403;28;20160;-81
2021/07/29 00:15:24;;;;;;;16.17;14.52;;;23.30;82.10;;;;;;5111284;28;20157;-83
2021/07/29 00:20:39;;;;;;;15.68;14.00;;;23.20;82.00;;;;;;5091983;28;20180;-82
2021/07/29 00:23:05;;;;;;;16.40;14.70;;;23.20;81.90;;;;;;5078091;28;20256;-82
2021/07/29 00:25:34;;;;;;;16.67;14.82;;;23.20;82.00;;;;;;5077926;28;20686;-81
2021/07/29 00:27:59;;;;;;;15.88;14.30;;;23.20;81.90;;;;;;5077789;28;20172;-81
2021/07/29 00:30:25;;;;;;;16.75;14.95;;;23.20;82.00;;;;;;5078442;28;20162;-82
2021/07/29 00:32:54;;;;;;;16.35;14.65;;;23.20;82.00;;;;;;5078254;28;20157;-83
2021/07/29 00:35:20;;;;;;;16.95;14.82;;;23.20;81.90;;;;;;5077314;28;20153;-81
2021/07/29 00:37:49;;;;;;;15.85;14.25;;;23.30;82.00;;;;;;5094676;28;20193;-81
2021/07/29 00:40:15;;;;;;;16.80;15.02;;;23.20;81.80;;;;;;5094354;28;20161;-81
2021/07/29 00:42:46;;;;;;;16.40;14.68;;;23.20;81.80;;;;;;5094776;28;20161;-82
2021/07/29 00:45:15;;;;;;;16.15;14.45;;;23.20;81.80;;;;;;5076844;28;20545;-82
2021/07/29 00:47:42;;;;;;;15.80;14.18;;;23.20;81.90;;;;;;5076954;28;20181;-82
2021/07/29 00:50:12;;;;;;;16.25;14.35;;;23.20;81.80;;;;;;5094602;28;20161;-82
2021/07/29 00:52:41;;;;;;;16.48;14.43;;;23.20;81.90;;;;;;5077172;28;20188;-83
2021/07/29 00:55:08;;;;;;;15.73;14.10;;;23.20;82.00;;;;;;5093903;28;20263;-82
2021/07/29 00:57:34;;;;;;;16.65;14.95;;;23.20;81.70;;;;;;5094772;28;20210;-82
2021/07/29 01:00:03;;;;;;;16.65;14.80;;;23.20;81.80;;;;;;5095116;28;20524;-82
2021/07/29 01:02:31;;;;;;;16.50;14.90;;;23.30;81.80;;;;;;5094587;28;20145;-82
2021/07/29 01:04:57;;;;;;;16.33;14.63;;;23.20;81.60;;;;;;5093624;28;20224;-83
2021/07/29 01:07:25;;;;;;;16.20;14.55;;;23.30;81.80;;;;;;5095382;28;20165;-81
2021/07/29 01:09:55;;;;;;;16.15;14.43;;;23.30;81.70;;;;;;5093922;28;20267;-81
2021/07/29 01:12:23;;;;;;;16.13;14.43;;;23.20;81.60;;;;;;5097628;28;20185;-81
2021/07/29 01:14:51;;;;;;;16.23;14.52;;;23.10;81.60;;;;;;5097943;28;20185;-82
2021/07/29 01:17:18;;;;;;;15.90;14.20;;;23.20;81.60;;;;;;5081405;28;20300;-81
2021/07/29 01:19:44;;;;;;;15.43;13.82;;;23.20;81.50;;;;;;5064414;28;20181;-83
2021/07/29 01:22:11;;;;;;;16.00;14.30;;;23.20;81.50;;;;;;5098674;28;20558;-82
2021/07/29 01:24:36;;;;;;;17.20;15.40;;;23.20;81.40;;;;;;5082102;28;20191;-82
2021/07/29 01:27:03;;;;;;;16.70;15.00;;;23.30;81.60;;;;;;5115481;28;20216;-82
2021/07/29 01:29:28;;;;;;;16.67;14.98;;;23.20;81.50;;;;;;5099084;28;20214;-81
2021/07/29 01:31:55;;;;;;;15.48;13.90;;;23.20;81.60;;;;;;5098210;28;20153;-81
2021/07/29 01:34:21;;;;;;;16.17;14.48;;;23.20;81.50;;;;;;5098636;28;20558;-83
2021/07/29 01:36:47;;;;;;;15.15;13.65;;;23.20;81.60;;;;;;5115485;28;20181;-83
2021/07/29 01:39:14;;;;;;;15.60;14.00;;;23.20;81.50;;;;;;5080782;28;20169;-83
2021/07/29 01:41:44;;;;;;;16.15;14.45;;;23.20;81.50;;;;;;5080827;28;20158;-82
2021/07/29 01:44:13;;;;;;;16.13;14.52;;;23.20;81.30;;;;;;5096954;28;20240;-82
2021/07/29 01:46:41;;;;;;;15.30;13.77;;;23.20;81.30;;;;;;5097286;28;20235;-82
2021/07/29 01:49:07;;;;;;;16.77;14.98;;;23.20;81.30;;;;;;5097659;28;20636;-81
2021/07/29 01:51:35;;;;;;;16.00;14.30;;;23.20;81.30;;;;;;5098338;28;20161;-83
2021/07/29 01:54:04;;;;;;;16.77;15.00;;;23.20;81.30;;;;;;5098063;28;20189;-82
2021/07/29 01:56:31;;;;;;;16.13;14.43;;;23.30;81.30;;;;;;5096777;28;20227;-81
2021/07/29 01:58:58;;;;;;;15.88;14.25;;;23.20;81.30;;;;;;5082239;28;20245;-81
2021/07/29 02:01:24;;;;;;;16.40;14.70;;;23.20;81.30;;;;;;5097605;28;20162;-82
2021/07/29 02:03:50;;;;;;;16.67;14.98;;;23.20;81.30;;;;;;5080448;28;20595;-83
2021/07/29 02:06:16;;;;;;;16.92;15.13;;;23.20;81.30;;;;;;5081039;28;20177;-81
2021/07/29 02:08:42;;;;;;;15.77;14.10;;;23.20;81.30;;;;;;5097196;28;20153;-82
2021/07/29 02:11:08;;;;;;;15.73;14.02;;;23.20;81.30;;;;;;5080412;28;20164;-84
2021/07/29 02:13:33;;;;;;;16.13;14.43;;;23.20;81.30;;;;;;5097228;28;20620;-81
2021/07/29 02:16:06;;;;;;;15.75;14.15;;;23.30;81.40;;;;;;5080202;28;20189;-82
2021/07/29 02:18:32;;;;;;;14.77;13.27;;;23.20;81.20;;;;;;5096927;28;20195;-81
2021/07/29 02:20:59;;;;;;;15.50;13.90;;;23.20;81.10;;;;;;5114445;28;20244;-82
2021/07/29 02:23:24;;;;;;;15.68;14.07;;;23.30;81.30;;;;;;5080176;28;20168;-81
2021/07/29 02:25:52;;;;;;;15.75;14.05;;;23.20;81.20;;;;;;5114422;28;20150;-81
2021/07/29 02:28:18;;;;;;;15.52;14.00;;;23.20;81.30;;;;;;5114188;28;20224;-82
2021/07/29 02:30:45;;;;;;;15.63;14.02;;;23.20;81.30;;;;;;5097078;28;20173;-81
2021/07/29 02:33:10;;;;;;;15.95;14.25;;;23.20;81.30;;;;;;5097439;28;20153;-80
2021/07/29 02:35:36;;;;;;;15.77;14.18;;;23.20;81.20;;;;;;5080327;28;20157;-81
2021/07/29 02:38:02;;;;;;;16.33;14.63;;;23.20;81.30;;;;;;5114194;28;20193;-82
2021/07/29 02:40:28;;;;;;;16.30;14.70;;;23.20;81.20;;;;;;5097314;28;20248;-81
2021/07/29 02:42:55;;;;;;;15.55;13.95;;;23.20;81.20;;;;;;5113458;28;20241;-81
2021/07/29 02:45:23;;;;;;;15.80;14.07;;;23.20;81.20;;;;;;5078868;28;20177;-83
2021/07/29 02:47:51;;;;;;;16.58;14.63;;;23.20;81.20;;;;;;5078794;28;20181;-81
2021/07/29 02:50:18;;;;;;;16.73;14.77;;;23.20;81.20;;;;;;5095846;28;20529;-81
2021/07/29 02:52:46;;;;;;;15.15;13.60;;;23.20;81.20;;;;;;5079405;28;20181;-81
2021/07/29 02:55:13;;;;;;;15.98;14.10;;;23.20;81.20;;;;;;5061352;28;20720;-81
2021/07/29 02:57:43;;;;;;;15.52;13.93;;;23.20;81.10;;;;;;5095888;28;20216;-82
2021/07/29 03:00:11;;;;;;;15.70;14.02;;;23.10;81.00;;;;;;5095945;28;20189;-82
2021/07/29 03:02:41;;;;;;;16.38;14.65;;;23.20;81.00;;;;;;5079082;28;20656;-81
2021/07/29 03:05:09;;;;;;;16.10;14.30;;;23.20;81.20;;;;;;5078643;28;20289;-81
2021/07/29 03:07:35;;;;;;;15.18;13.68;;;23.20;81.10;;;;;;5096438;28;20192;-83
2021/07/29 03:10:01;;;;;;;15.88;14.18;;;23.20;81.00;;;;;;5113239;28;20207;-81
2021/07/29 03:12:29;;;;;;;15.70;14.00;;;23.20;81.10;;;;;;5112850;28;20680;-82
2021/07/29 03:14:55;;;;;;;15.98;14.25;;;23.20;81.10;;;;;;5097032;28;20160;-82
2021/07/29 03:17:20;;;;;;;16.25;14.55;;;23.20;80.90;;;;;;5114237;28;20237;-82
2021/07/29 03:19:47;;;;;;;15.30;13.70;;;23.30;81.10;;;;;;5097044;28;20211;-86
2021/07/29 03:22:13;;;;;;;15.68;14.07;;;23.20;80.90;;;;;;5096648;28;20352;-81
2021/07/29 03:24:39;;;;;;;15.20;13.60;;;23.20;81.00;;;;;;5096558;28;20758;-82
2021/07/29 03:27:09;;;;;;;15.50;13.90;;;23.20;80.90;;;;;;5096343;28;20165;-81
2021/07/29 03:29:35;;;;;;;15.65;13.88;;;23.20;80.90;;;;;;5079157;28;20270;-81
2021/07/29 03:32:01;;;;;;;15.48;13.88;;;23.20;80.80;;;;;;5113694;28;20238;-82
2021/07/29 03:34:27;;;;;;;15.10;13.50;;;23.20;80.90;;;;;;5112187;28;20664;-81
2021/07/29 03:36:53;;;;;;;15.75;14.10;;;23.20;80.90;;;;;;5096048;28;20197;-81
2021/07/29 03:39:23;;;;;;;16.10;14.35;;;23.20;80.80;;;;;;5078904;28;20154;-83
2021/07/29 03:41:50;;;;;;;15.30;13.70;;;23.20;80.80;;;;;;5095279;28;20244;-82
2021/07/29 03:44:16;;;;;;;15.68;14.00;;;23.20;80.70;;;;;;5096045;28;20161;-81
2021/07/29 03:46:42;;;;;;;14.75;13.20;;;23.20;80.70;;;;;;5080405;28;20632;-82
2021/07/29 03:49:08;;;;;;;15.75;14.15;;;23.30;80.60;;;;;;5096040;28;20173;-82
2021/07/29 03:51:34;;;;;;;16.00;14.30;;;23.20;80.60;;;;;;5113997;28;20158;-81
2021/07/29 03:54:05;;;;;;;15.10;13.60;;;23.30;80.50;;;;;;5097130;28;20543;-81
2021/07/29 04:07:28;;;;;;;15.07;13.48;;;23.20;80.60;;;;;;5074347;28;20540;-81
2021/07/29 04:09:57;;;;;;;15.80;14.20;;;23.30;79.90;;;;;;5039278;28;20642;-82
2021/07/29 04:12:24;;;;;;;14.40;12.90;;;23.30;80.20;;;;;;5022651;28;20185;-82
2021/07/29 04:14:53;;;;;;;14.60;13.10;;;23.30;79.80;;;;;;5075533;28;20220;-81
2021/07/29 04:17:23;;;;;;;12.75;11.40;;;23.40;79.90;;;;;;5110626;28;20186;-81
2021/07/29 04:19:54;;;;;;;12.90;11.60;;;23.40;79.30;;;;;;5076510;28;20189;-81
2021/07/29 04:22:21;;;;;;;13.50;12.10;;;23.30;78.70;;;;;;5076476;28;20201;-82
2021/07/29 04:24:47;;;;;;;12.90;11.60;;;23.40;78.30;;;;;;5041248;28;20165;-81
2021/07/29 04:27:18;;;;;;;12.95;11.65;;;23.50;78.00;;;;;;5058291;28;20157;-81
2021/07/29 04:29:44;;;;;;;13.93;12.48;;;23.60;77.80;;;;;;5093966;28;20552;-81
2021/07/29 04:32:10;;;;;;;12.32;11.13;;;23.50;77.60;;;;;;5041597;28;20587;-81
2021/07/29 04:34:36;;;;;;;12.73;11.48;;;23.60;77.50;;;;;;5058411;28;20200;-81
2021/07/29 04:37:08;;;;;;;12.52;11.23;;;23.70;77.10;;;;;;5058390;28;20219;-81
2021/07/29 04:39:42;;;;;;;13.38;11.98;;;23.70;76.90;;;;;;5094068;27;20182;-80
2021/07/29 04:42:12;;;;;;;12.63;11.32;;;23.70;76.90;;;;;;5077155;28;20182;-81
2021/07/29 04:44:42;;;;;;;12.40;11.10;;;23.70;76.60;;;;;;5093935;28;20205;-81
2021/07/29 04:47:08;;;;;;;12.45;11.15;;;23.70;76.50;;;;;;5023713;28;20183;-82
2021/07/29 04:49:34;;;;;;;12.77;11.48;;;23.60;76.50;;;;;;5057612;28;20158;-81
2021/07/29 04:51:59;;;;;;;13.18;11.85;;;23.70;76.80;;;;;;5127851;27;20623;-81
2021/07/29 04:54:27;;;;;;;12.70;11.40;;;23.70;76.40;;;;;;5110299;28;20158;-80
2021/07/29 04:56:54;;;;;;;12.93;11.48;;;23.70;76.20;;;;;;5023452;28;20197;-81
2021/07/29 04:59:22;;;;;;;13.18;11.88;;;23.80;75.90;;;;;;5023271;28;20185;-80
2021/07/29 05:01:49;;;;;;;12.30;11.10;;;23.80;76.30;;;;;;5127352;28;20158;-81
2021/07/29 05:04:17;;;;;;;13.18;11.77;;;23.80;76.20;;;;;;5039824;28;20241;-80
2021/07/29 05:06:44;;;;;;;13.63;12.23;;;23.70;75.90;;;;;;5086471;28;20688;-81
2021/07/29 05:09:11;;;;;;;12.15;10.88;;;23.80;76.50;;;;;;5078930;28;20276;-80
2021/07/29 05:11:39;;;;;;;12.52;11.23;;;23.80;75.70;;;;;;5078580;28;20189;-81
2021/07/29 05:14:06;;;;;;;13.35;12.02;;;23.80;76.10;;;;;;5062102;28;20185;-81
2021/07/29 05:16:32;;;;;;;12.57;11.27;;;23.80;76.30;;;;;;5078856;28;20241;-82
2021/07/29 05:18:59;;;;;;;11.80;10.60;;;23.80;76.00;;;;;;5043526;28;20640;-81
2021/07/29 05:21:29;;;;;;;11.50;10.40;;;23.80;75.60;;;;;;5096510;28;20190;-81
2021/07/29 05:23:55;;;;;;;12.20;10.90;;;23.90;75.60;;;;;;5043654;28;20147;-80
2021/07/29 05:26:22;;;;;;;11.77;10.60;;;23.90;75.60;;;;;;5042917;28;20249;-81
2021/07/29 05:28:48;;;;;;;11.90;10.70;;;23.90;75.50;;;;;;5079782;28;20213;-81
2021/07/29 05:31:17;;;;;;;13.05;11.73;;;23.90;75.40;;;;;;5096092;28;20667;-82
2021/07/29 05:33:46;;;;;;;12.50;11.30;;;23.80;75.60;;;;;;5009829;28;20181;-80
2021/07/29 05:36:14;;;;;;;12.18;10.95;;;23.90;75.60;;;;;;5061327;28;20220;-82
2021/07/29 05:38:42;;;;;;;11.88;10.73;;;23.90;76.30;;;;;;5025854;28;20190;-81
2021/07/29 05:41:11;;;;;;;11.68;10.55;;;23.80;75.80;;;;;;5025671;28;20208;-81
2021/07/29 05:43:39;;;;;;;13.40;11.90;;;23.80;75.50;;;;;;5061420;28;20182;-82
2021/07/29 05:46:14;;;;;;;11.60;10.40;;;23.90;75.20;;;;;;5010397;28;20227;-81
2021/07/29 05:48:41;;;;;;;11.90;10.70;;;23.90;75.60;;;;;;5078453;28;20178;-80
2021/07/29 05:51:09;;;;;;;12.43;11.13;;;23.90;75.40;;;;;;5113031;28;20188;-80
2021/07/29 05:53:39;;;;;;;11.77;10.55;;;23.90;75.50;;;;;;5010730;28;20552;-82
2021/07/29 05:56:11;;;;;;;12.00;10.80;;;23.90;75.30;;;;;;5062310;28;20210;-81
2021/07/29 05:58:41;;;;;;;11.20;10.10;;;23.90;75.30;;;;;;5026255;28;20190;-81
2021/07/29 06:01:12;;;;;;;12.85;11.55;;;23.90;74.90;;;;;;5062647;28;20192;-81
2021/07/29 06:03:42;;;;;;;11.73;10.52;;;24.00;75.00;;;;;;5062556;28;20182;-81
2021/07/29 06:06:15;;;;;;;12.60;11.30;;;24.00;75.00;;;;;;5062245;28;20622;-81
2021/07/29 06:08:44;;;;;;;11.48;10.30;;;24.00;74.80;;;;;;5078682;28;20182;-80
2021/07/29 06:11:12;;;;;;;12.07;10.80;;;23.90;74.80;;;;;;5062179;28;20186;-82
2021/07/29 06:13:41;;;;;;;11.85;10.65;;;24.00;74.70;;;;;;5078725;28;20174;-80
2021/07/29 06:16:12;;;;;;;11.70;10.50;;;24.00;74.90;;;;;;5062666;28;20545;-81
2021/07/29 06:18:48;;;;;;;12.13;10.93;;;24.10;74.70;;;;;;5061809;28;20186;-80
2021/07/29 06:21:16;;;;;;;12.88;11.55;;;24.00;74.90;;;;;;5061254;28;20182;-81
2021/07/29 06:23:43;;;;;;;12.35;10.27;;;24.00;74.80;;;;;;5078420;28;20182;-81
2021/07/29 06:26:11;;;;;;;12.18;10.98;;;24.00;74.60;;;;;;5078392;28;20675;-80
2021/07/29 06:28:41;;;;;;;11.48;10.27;;;24.00;74.60;;;;;;5062615;28;20192;-81
2021/07/29 06:31:08;;;;;;;11.75;10.55;;;24.00;74.40;;;;;;5061404;28;20189;-81
2021/07/29 06:33:35;;;;;;;11.57;10.40;;;23.90;74.30;;;;;;5043167;28;20159;-81
2021/07/29 06:36:06;;;;;;;11.05;9.95;;;24.00;74.70;;;;;;5009231;28;20209;-81
2021/07/29 06:38:38;;;;;;;10.93;9.82;;;24.00;74.20;;;;;;5009963;28;20193;-81
2021/07/29 06:41:09;;;;;;;11.77;10.52;;;24.10;74.10;;;;;;5111326;28;20251;-81
2021/07/29 06:43:36;;;;;;;11.73;10.52;;;24.10;74.30;;;;;;5095272;28;20231;-81
2021/07/29 06:46:06;;;;;;;11.32;10.23;;;24.10;73.80;;;;;;5078231;28;20178;-80
2021/07/29 06:48:33;;;;;;;11.45;10.30;;;24.10;73.60;;;;;;5061573;28;20239;-80
2021/07/29 06:51:07;;;;;;;11.43;10.23;;;24.10;73.50;;;;;;5077336;28;20578;-81
2021/07/29 06:53:36;;;;;;;10.43;9.43;;;24.10;73.70;;;;;;5078989;28;20658;-81
2021/07/29 06:56:04;;;;;;;10.73;9.70;;;24.10;73.50;;;;;;5044381;28;20194;-80
2021/07/29 06:58:32;;;;;;;10.82;9.73;;;24.30;73.30;;;;;;5026521;28;20214;-80
2021/07/29 07:01:06;;;;;;;10.50;9.43;;;24.20;73.20;;;;;;5095251;28;20246;-81
2021/07/29 07:03:33;;;;;;;10.93;9.82;;;24.20;73.10;;;;;;5078235;28;20215;-81
2021/07/29 07:06:01;;;;;;;11.02;9.82;;;24.10;73.30;;;;;;5009815;28;20217;-81
2021/07/29 07:08:28;;;;;;;11.38;10.18;;;24.10;73.20;;;;;;5043633;28;20174;-80
2021/07/29 07:10:55;;;;;;;10.88;9.77;;;24.20;73.20;;;;;;5009580;28;20209;-81
2021/07/29 07:13:22;;;;;;;11.00;9.90;;;24.20;73.20;;;;;;5077710;28;20182;-80
2021/07/29 07:15:49;;;;;;;11.07;9.98;;;24.20;73.00;;;;;;5094733;28;20223;-81
2021/07/29 07:18:15;;;;;;;11.00;9.90;;;24.10;73.40;;;;;;5009996;28;20243;-80
2021/07/29 07:20:45;;;;;;;10.52;9.43;;;24.10;73.30;;;;;;5095207;28;20178;-80
2021/07/29 07:23:14;;;;;;;10.95;9.80;;;24.20;72.90;;;;;;5026464;28;20667;-80
2021/07/29 07:25:44;;;;;;;11.52;10.32;;;24.20;72.90;;;;;;5043192;28;20241;-81
2021/07/29 07:28:11;;;;;;;10.80;9.77;;;24.10;72.80;;;;;;5025767;28;20181;-81
2021/07/29 07:30:39;;;;;;;10.80;9.70;;;24.20;72.90;;;;;;5009344;28;20249;-81
2021/07/29 07:33:06;;;;;;;11.55;10.35;;;24.20;72.70;;;;;;5043681;28;20166;-81
2021/07/29 07:35:36;;;;;;;10.25;9.18;;;24.10;73.00;;;;;;5042928;28;20185;-81
2021/07/29 07:38:06;;;;;;;10.00;9.00;;;24.20;72.70;;;;;;5026008;28;20186;-81
2021/07/29 07:40:32;;;;;;;10.70;9.60;;;24.20;72.30;;;;;;5077829;28;20186;-81
2021/07/29 07:42:58;;;;;;;10.88;9.80;;;24.30;72.20;;;;;;5041878;28;20150;-83
2021/07/29 07:45:30;;;;;;;10.80;9.70;;;24.30;72.10;;;;;;5042065;28;20169;-81
2021/07/29 07:47:56;;;;;;;10.80;9.70;;;24.30;72.10;;;;;;5025308;28;20197;-80
2021/07/29 07:50:22;;;;;;;10.70;9.60;;;24.30;72.30;;;;;;5042368;28;20165;-81
2021/07/29 07:52:47;;;;;;;10.38;9.38;;;24.30;72.30;;;;;;5042346;28;20161;-82
2021/07/29 07:55:13;;;;;;;10.93;9.80;;;24.30;71.90;;;;;;5042524;28;20293;-81
2021/07/29 07:57:43;;;;;;;10.38;9.38;;;24.30;72.30;;;;;;5025224;28;20170;-81
2021/07/29 08:00:09;;;;;;;10.40;9.30;;;24.30;72.20;;;;;;5024435;28;20179;-81
2021/07/29 08:02:37;;;;;;;10.23;9.23;;;24.30;71.80;;;;;;5042830;28;20628;-81
2021/07/29 08:05:02;;;;;;;9.88;8.88;;;24.30;71.70;;;;;;5077982;28;20216;-80
2021/07/29 08:07:30;;;;;;;10.40;9.30;;;24.40;71.50;;;;;;5027293;28;20241;-81
2021/07/29 08:09:56;;;;;;;10.35;9.30;;;24.40;71.90;;;;;;5010748;28;20744;-80
2021/07/29 08:12:27;;;;;;;11.25;10.15;;;24.30;71.90;;;;;;5078105;28;20187;-81
2021/07/29 08:14:54;;;;;;;10.27;9.18;;;24.30;71.60;;;;;;5078709;28;20209;-81
2021/07/29 08:17:21;;;;;;;10.40;9.40;;;24.30;71.40;;;;;;5096661;28;20189;-81
2021/07/29 08:19:51;;;;;;;9.95;8.95;;;24.40;71.50;;;;;;5011122;28;20182;-81
2021/07/29 08:22:20;;;;;;;10.10;9.13;;;24.40;71.10;;;;;;5079757;28;20198;-80
2021/07/29 08:24:50;;;;;;;10.45;9.38;;;24.40;71.40;;;;;;5113157;28;20197;-81
2021/07/29 08:27:17;;;;;;;9.25;8.35;;;24.30;71.50;;;;;;5080314;28;20199;-80
2021/07/29 08:29:43;;;;;;;10.52;9.43;;;24.40;70.90;;;;;;5027855;28;20166;-81
2021/07/29 08:32:10;;;;;;;10.20;9.20;;;24.40;70.80;;;;;;5045054;28;20636;-81
2021/07/29 08:34:37;;;;;;;9.98;8.98;;;24.40;71.10;;;;;;5045222;28;20147;-81
2021/07/29 08:37:03;;;;;;;9.18;8.27;;;24.40;70.90;;;;;;5044170;28;20161;-81
2021/07/29 08:39:28;;;;;;;10.30;9.20;;;24.40;70.60;;;;;;5028339;28;20190;-81
2021/07/29 08:41:58;;;;;;;9.82;8.85;;;24.40;70.90;;;;;;5045668;28;20210;-81
2021/07/29 08:44:27;;;;;;;8.75;7.88;;;24.40;71.10;;;;;;5083402;28;20182;-81
2021/07/29 08:46:58;;;;;;;9.45;8.55;;;24.40;70.60;;;;;;5099989;28;20265;-81
2021/07/29 08:49:28;;;;;;;10.48;9.48;;;24.50;70.30;;;;;;5116740;28;20186;-80
2021/07/29 08:51:57;;;;;;;9.60;8.68;;;24.40;70.50;;;;;;5030895;28;20182;-79
2021/07/29 08:54:25;;;;;;;10.40;9.40;;;24.40;70.30;;;;;;5014217;28;20181;-81
2021/07/29 08:56:53;;;;;;;9.85;8.85;;;24.40;71.10;;;;;;5032357;28;20162;-80
2021/07/29 08:59:19;;;;;;;10.05;9.07;;;24.30;71.20;;;;;;5099904;28;20189;-80
2021/07/29 09:01:48;;;;;;;8.90;8.00;;;24.30;71.00;;;;;;5031220;28;20188;-80
2021/07/29 09:04:15;;;;;;;10.35;9.18;;;24.40;70.50;;;;;;5031044;28;20526;-79
2021/07/29 09:07:04;;;;;;;9.18;8.23;;;24.40;70.70;;;;;;5031945;28;20214;-80
2021/07/29 09:09:42;;;;;;;9.35;8.45;;;24.40;70.50;;;;;;5031326;28;20184;-81
2021/07/29 09:12:24;;;;;;;9.45;8.55;;;24.30;70.80;;;;;;5032695;28;20609;-80
2021/07/29 09:14:55;;;;;;;10.25;9.18;;;24.30;71.10;;;;;;5031298;28;20225;-80
2021/07/29 09:17:22;;;;;;;10.05;9.05;;;24.40;70.70;;;;;;5014214;28;20194;-80
2021/07/29 09:19:50;;;;;;;9.43;8.52;;;24.40;70.90;;;;;;5030341;28;20206;-80
2021/07/29 09:22:20;;;;;;;10.85;9.75;;;24.40;70.90;;;;;;5048290;28;20226;-80
2021/07/29 09:25:13;;;;;;;9.68;8.68;;;24.40;70.70;;;;;;5048239;28;20162;-79
2021/07/29 09:27:43;;;;;;;8.80;8.00;;;24.40;70.50;;;;;;5049518;28;20204;-80
2021/07/29 09:30:27;;;;;;;9.18;8.27;;;24.30;70.20;;;;;;5046748;28;20169;-80
2021/07/29 09:33:17;;;;;;;9.93;9.02;;;24.30;70.40;;;;;;5047516;28;20151;-81
2021/07/29 09:35:45;;;;;;;9.68;8.77;;;24.40;70.50;;;;;;5033305;28;20209;-80
2021/07/29 09:38:18;;;;;;;9.38;8.48;;;24.30;70.90;;;;;;5030890;28;20273;-80
2021/07/29 09:40:47;;;;;;;10.13;9.13;;;24.30;70.20;;;;;;5031051;28;20166;-80
2021/07/29 09:43:16;;;;;;;9.77;8.88;;;24.40;69.60;;;;;;5030579;28;20175;-80
2021/07/29 09:45:45;;;;;;;10.00;9.00;;;24.40;69.70;;;;;;5031497;28;20163;-80
2021/07/29 09:48:11;;;;;;;9.63;8.73;;;24.40;70.30;;;;;;5047210;28;20190;-80
2021/07/29 09:50:39;;;;;;;10.07;9.07;;;24.40;70.20;;;;;;5046317;28;20203;-80
2021/07/29 09:53:05;;;;;;;9.88;8.88;;;24.40;70.10;;;;;;5047371;28;20214;-81
2021/07/29 09:55:36;;;;;;;10.10;9.10;;;24.40;70.10;;;;;;5030282;28;20186;-80
2021/07/29 09:58:07;;;;;;;10.18;9.18;;;24.40;70.20;;;;;;5013662;28;20270;-81
2021/07/29 10:00:38;;;;;;;9.50;8.50;;;24.40;70.00;;;;;;5013521;28;20200;-81
2021/07/29 10:03:08;;;;;;;9.27;8.43;;;24.40;69.80;;;;;;5030356;28;20373;-80
2021/07/29 10:05:48;;;;;;;10.80;9.70;;;24.40;69.80;;;;;;5112484;28;20238;-81
2021/07/29 10:08:25;;;;;;;9.63;8.73;;;24.40;69.70;;;;;;5011987;28;20183;-81
2021/07/29 10:10:53;;;;;;;10.32;8.85;;;24.40;69.70;;;;;;5027205;28;20174;-81
2021/07/29 10:13:39;;;;;;;10.60;9.55;;;24.40;70.20;;;;;;5026511;28;20178;-81
2021/07/29 10:16:05;;;;;;;9.70;8.70;;;24.30;70.40;;;;;;5011770;28;20202;-81
2021/07/29 10:19:02;;;;;;;10.00;9.02;;;24.30;70.00;;;;;;5026033;28;20169;-81
2021/07/29 10:21:30;;;;;;;10.25;9.25;;;24.30;69.90;;;;;;5044309;28;20155;-81
2021/07/29 10:23:58;;;;;;;10.10;9.10;;;24.40;69.70;;;;;;5025988;28;20163;-80
2021/07/29 10:26:26;;;;;;;8.18;7.38;;;24.30;69.80;;;;;;5027670;28;20193;-80
2021/07/29 10:28:52;;;;;;;9.45;8.48;;;24.30;69.20;;;;;;5043099;28;20170;-80
2021/07/29 10:31:20;;;;;;;9.20;8.30;;;24.40;68.90;;;;;;5010386;28;20170;-80
2021/07/29 10:33:47;;;;;;;9.32;8.40;;;24.40;69.30;;;;;;5026616;28;20155;-80
2021/07/29 10:36:45;;;;;;;9.60;8.60;;;24.40;69.90;;;;;;5011756;28;20209;-82
2021/07/29 10:39:12;;;;;;;9.40;8.50;;;24.30;69.60;;;;;;5043860;28;20641;-81
2021/07/29 10:41:41;;;;;;;9.43;8.52;;;24.30;68.90;;;;;;5027050;28;20692;-81
2021/07/29 10:44:29;;;;;;;9.60;8.68;;;24.40;68.90;;;;;;5026126;28;20151;-81
2021/07/29 10:47:02;;;;;;;9.38;8.48;;;24.50;68.90;;;;;;5029426;28;20171;-81
2021/07/29 10:50:08;;;;;;;9.20;8.30;;;24.50;68.70;;;;;;5010587;28;20167;-81
2021/07/29 10:52:35;;;;;;;10.02;9.02;;;24.50;68.40;;;;;;5042830;28;20548;-80
2021/07/29 10:55:01;;;;;;;9.73;8.80;;;24.50;68.30;;;;;;5042775;28;20198;-81
2021/07/29 10:57:30;;;;;;;9.40;8.45;;;24.50;67.90;;;;;;5010184;28;20174;-81
2021/07/29 10:59:59;;;;;;;9.23;8.32;;;24.50;68.10;;;;;;5026842;28;20159;-80
2021/07/29 11:02:38;;;;;;;9.50;8.50;;;24.50;68.00;;;;;;5026266;28;20226;-81
2021/07/29 11:05:08;;;;;;;9.70;8.70;;;24.50;67.60;;;;;;5008711;28;20256;-81
2021/07/29 11:07:34;;;;;;;9.32;8.43;;;24.50;67.80;;;;;;5030199;28;20170;-82
2021/07/29 11:10:04;;;;;;;10.05;9.02;;;24.50;67.90;;;;;;5045633;28;20168;-81
2021/07/29 11:12:34;;;;;;;9.57;8.68;;;24.50;67.60;;;;;;5030105;28;20162;-81
2021/07/29 11:15:09;;;;;;;10.50;9.43;;;24.50;67.60;;;;;;5029762;28;20190;-81
2021/07/29 11:17:36;;;;;;;10.25;8.68;;;24.40;68.10;;;;;;5046513;28;20169;-81
2021/07/29 11:20:03;;;;;;;9.95;8.95;;;24.50;67.60;;;;;;5029543;28;20281;-82
2021/07/29 11:22:50;;;;;;;9.63;8.63;;;24.50;67.60;;;;;;5030354;28;20633;-81
2021/07/29 11:25:19;;;;;;;9.25;8.35;;;24.50;67.90;;;;;;5097549;28;20182;-80
2021/07/29 11:27:48;;;;;;;9.70;8.70;;;24.40;68.10;;;;;;5096986;28;20234;-81
2021/07/29 11:30:17;;;;;;;10.63;8.60;;;24.30;68.30;;;;;;5027345;28;20664;-81
2021/07/29 11:32:48;;;;;;;9.57;8.57;;;24.30;68.70;;;;;;5012047;28;20185;-81
2021/07/29 11:35:20;;;;;;;10.60;9.10;;;24.40;68.20;;;;;;5011319;28;20213;-81
2021/07/29 11:37:49;;;;;;;9.90;8.90;;;24.40;67.90;;;;;;5029468;28;20219;-81
2021/07/29 11:40:25;;;;;;;9.80;8.80;;;24.40;68.10;;;;;;5028573;28;20186;-81
2021/07/29 11:42:55;;;;;;;9.40;8.38;;;24.50;68.00;;;;;;5097108;28;20181;-81
2021/07/29 11:45:32;;;;;;;10.82;9.73;;;24.50;68.10;;;;;;5097692;28;20258;-81
2021/07/29 11:48:01;;;;;;;9.77;8.77;;;24.50;68.30;;;;;;5096888;28;20238;-81
2021/07/29 11:50:44;;;;;;;9.70;8.70;;;24.50;68.00;;;;;;5028397;28;20177;-81
2021/07/29 11:53:11;;;;;;;10.02;9.02;;;24.50;68.10;;;;;;5028385;28;20221;-81
2021/07/29 11:55:39;;;;;;;9.48;8.57;;;24.50;67.90;;;;;;5045468;28;20211;-81
2021/07/29 11:58:11;;;;;;;9.88;8.48;;;24.60;67.80;;;;;;5029366;28;20638;-80
2021/07/29 12:00:37;;;;;;;9.98;8.98;;;24.60;67.90;;;;;;5012127;28;20189;-82
2021/07/29 12:03:04;;;;;;;10.05;9.05;;;24.60;67.90;;;;;;5029150;28;20166;-81
2021/07/29 12:05:30;;;;;;;9.27;8.38;;;24.50;67.80;;;;;;5028454;28;20205;-81
2021/07/29 12:07:56;;;;;;;9.07;8.18;;;24.60;67.80;;;;;;5029093;28;20176;-81
2021/07/29 12:10:26;;;;;;;10.63;9.52;;;24.50;67.70;;;;;;5062842;28;20237;-81
2021/07/29 12:12:53;;;;;;;8.95;8.05;;;24.50;67.90;;;;;;5028522;28;20226;-81
2021/07/29 12:15:23;;;;;;;10.52;8.55;;;24.50;67.40;;;;;;5028631;28;20208;-82
2021/07/29 12:17:52;;;;;;;9.20;8.30;;;24.60;67.20;;;;;;5048384;28;20633;-81
2021/07/29 12:20:33;;;;;;;8.77;7.88;;;24.60;66.90;;;;;;5048971;28;20194;-81
2021/07/29 12:23:14;;;;;;;9.02;8.13;;;24.70;66.50;;;;;;5031316;28;20166;-80
2021/07/29 12:25:40;;;;;;;9.07;8.18;;;24.70;66.50;;;;;;5049188;28;20162;-80
2021/07/29 12:28:07;;;;;;;9.10;8.20;;;24.70;66.10;;;;;;5048611;28;20158;-81
2021/07/29 12:30:36;;;;;;;9.43;8.48;;;24.80;66.00;;;;;;5048518;28;20175;-81
2021/07/29 12:33:06;;;;;;;9.30;8.40;;;24.70;66.70;;;;;;5049212;28;20158;-81
2021/07/29 12:35:31;;;;;;;9.73;8.70;;;24.70;66.50;;;;;;5047540;28;20224;-81
2021/07/29 12:37:58;;;;;;;9.57;8.63;;;24.60;66.50;;;;;;5048315;28;20162;-81
2021/07/29 12:40:27;;;;;;;8.73;7.82;;;24.60;67.00;;;;;;5048205;28;20241;-81
2021/07/29 12:42:54;;;;;;;9.35;8.45;;;24.60;66.30;;;;;;5048313;28;20159;-81
2021/07/29 12:45:21;;;;;;;8.65;7.75;;;24.60;65.50;;;;;;5032211;28;20174;-81
2021/07/29 12:48:05;;;;;;;8.23;7.43;;;24.50;64.90;;;;;;5031474;28;20170;-81
2021/07/29 12:50:38;;;;;;;9.10;8.20;;;24.60;63.80;;;;;;5031707;28;20184;-80
2021/07/29 12:53:10;;;;;;;7.35;6.65;;;24.60;64.50;;;;;;5048801;28;20155;-81
2021/07/29 12:55:40;;;;;;;8.02;7.20;;;24.50;64.30;;;;;;5031793;28;20198;-81